createdAt,value
2022-09-07T00:00:37.218Z,98271.41
2022-09-07T00:05:48.226Z,98257.88
2022-09-07T00:11:01.975Z,98242.75
2022-09-07T00:16:06.913Z,98249.44
2022-09-07T00:21:10.247Z,98253.09
2022-09-07T00:26:15.336Z,98249.06
2022-09-07T00:31:22.917Z,98231.31
2022-09-07T00:36:24.741Z,98241.81
2022-09-07T00:41:28.234Z,98239.81
2022-09-07T00:46:34.328Z,98245.50
2022-09-07T00:51:43.870Z,98240.66
2022-09-07T00:56:47.174Z,98227.16
2022-09-07T01:01:49.501Z,98229.38
2022-09-07T01:06:54.036Z,98228.78
2022-09-07T01:11:59.809Z,98224.56
2022-09-07T01:17:49.502Z,98216.09
2022-09-07T01:23:03.363Z,98213.69
2022-09-07T01:28:24.887Z,98219.34
2022-09-07T01:33:47.635Z,98212.91
2022-09-07T01:39:02.320Z,98208.44
2022-09-07T01:44:21.973Z,98209.66
2022-09-07T01:49:29.465Z,98207.66
2022-09-07T01:55:13.899Z,98210.47
2022-09-07T02:00:19.925Z,98220.38
2022-09-07T02:05:27.003Z,98217.75
2022-09-07T02:10:39.103Z,98227.66
2022-09-07T02:15:52.686Z,98218.16
2022-09-07T02:20:58.092Z,98217.38
2022-09-07T02:26:07.082Z,98213.94
2022-09-07T02:31:09.058Z,98198.41
2022-09-07T02:36:13.447Z,98198.00
2022-09-07T02:41:35.225Z,98199.22
2022-09-07T02:47:05.036Z,98187.94
2022-09-07T02:52:43.779Z,98183.09
2022-09-07T02:58:19.084Z,98187.75
2022-09-07T03:03:41.855Z,98182.72
2022-09-07T03:08:55.621Z,98179.69
2022-09-07T03:14:26.357Z,98194.84
2022-09-07T03:19:28.345Z,98197.66
2022-09-07T03:24:30.270Z,98193.44
2022-09-07T03:29:32.194Z,98182.56
2022-09-07T03:34:34.310Z,98182.16
2022-09-07T03:39:36.733Z,98183.97
2022-09-07T03:44:38.635Z,98191.25
2022-09-07T03:49:40.650Z,98193.28
2022-09-07T03:54:42.516Z,98192.06
2022-09-07T03:59:45.299Z,98188.84
2022-09-07T04:04:47.225Z,98188.63
2022-09-07T04:09:51.617Z,98183.00
2022-09-07T04:14:53.506Z,98183.41
2022-09-07T04:19:55.923Z,98192.28
2022-09-07T04:24:57.943Z,98191.28
2022-09-07T04:30:00.237Z,98188.88
2022-09-07T04:35:02.614Z,98184.44
2022-09-07T04:40:05.743Z,98179.19
2022-09-07T04:45:08.413Z,98178.16
2022-09-07T04:50:10.517Z,98183.22
2022-09-07T04:55:12.790Z,98179.97
2022-09-07T05:00:15.230Z,98188.84
2022-09-07T05:05:17.307Z,98195.88
2022-09-07T05:10:19.659Z,98183.53
2022-09-07T05:15:21.802Z,98187.16
2022-09-07T05:20:24.531Z,98179.47
2022-09-07T05:25:29.267Z,98175.84
2022-09-07T05:35:59.138Z,98169.75
2022-09-07T05:41:01.380Z,98167.31
2022-09-07T05:46:03.889Z,98165.06
2022-09-07T05:51:07.290Z,98186.03
2022-09-07T05:56:09.931Z,98176.31
2022-09-07T06:01:13.427Z,98181.69
2022-09-07T06:06:19.011Z,98171.16
2022-09-07T06:11:23.628Z,98170.09
2022-09-07T06:16:26.102Z,98163.34
2022-09-07T06:21:28.487Z,98154.63
2022-09-07T06:26:31.507Z,98147.53
2022-09-07T06:31:34.564Z,98153.19
2022-09-07T06:36:36.677Z,98162.44
2022-09-07T06:47:05.370Z,98161.91
2022-09-07T06:52:07.397Z,98168.78
2022-09-07T06:57:09.739Z,98160.03
2022-09-07T07:02:15.344Z,98165.22
2022-09-07T07:07:17.864Z,98155.16
2022-09-07T07:17:20.840Z,98157.44
2022-09-07T07:22:45.980Z,98153.84
2022-09-07T07:27:48.468Z,98153.25
2022-09-07T07:32:50.426Z,98151.50
2022-09-07T07:43:15.578Z,98141.78
2022-09-07T07:48:17.413Z,98136.63
2022-09-07T07:58:46.447Z,98138.09
2022-09-07T08:03:49.390Z,98143.75
2022-09-07T08:08:51.470Z,98135.38
2022-09-07T08:13:55.172Z,98137.09
2022-09-07T08:18:58.255Z,98140.16
2022-09-07T08:24:00.248Z,98148.63
2022-09-07T08:29:02.408Z,98134.72
2022-09-07T08:34:04.365Z,98136.44
2022-09-07T08:39:06.571Z,98140.16
2022-09-07T08:44:38.784Z,98129.31
2022-09-07T08:50:01.439Z,98126.31
2022-09-07T08:55:11.951Z,98117.59
2022-09-07T09:00:17.611Z,98112.94
2022-09-07T09:05:28.477Z,98119.19
2022-09-07T09:10:45.465Z,98113.25
2022-09-07T09:15:52.349Z,98116.03
2022-09-07T09:20:56.936Z,98111.78
2022-09-07T09:26:16.074Z,98098.06
2022-09-07T09:31:20.953Z,98104.41
2022-09-07T09:36:26.002Z,98105.69
2022-09-07T09:41:37.554Z,98107.97
2022-09-07T09:46:39.935Z,98098.59
2022-09-07T09:57:16.603Z,98092.31
2022-09-07T10:07:55.038Z,98096.03
2022-09-07T10:12:57.279Z,98093.94
2022-09-07T10:17:59.971Z,98092.09
2022-09-07T10:23:03.454Z,98095.22
2022-09-07T10:28:14.635Z,98090.66
2022-09-07T10:34:25.636Z,98095.56
2022-09-07T10:39:14.289Z,98102.63
2022-09-07T10:44:36.089Z,98102.13
2022-09-07T10:50:25.792Z,98100.69
2022-09-07T10:55:34.201Z,98098.66
2022-09-07T11:01:04.103Z,98088.25
2022-09-07T11:06:15.444Z,98089.25
2022-09-07T11:11:20.501Z,98086.75
2022-09-07T11:22:01.195Z,98081.88
2022-09-07T11:27:12.374Z,98091.50
2022-09-07T11:32:29.915Z,98081.44
2022-09-07T11:37:55.695Z,98078.84
2022-09-07T11:43:21.795Z,98069.34
2022-09-07T11:49:10.805Z,98061.03
2022-09-07T11:54:37.395Z,98052.34
2022-09-07T12:00:11.394Z,98052.59
2022-09-07T12:05:41.715Z,98041.56
2022-09-07T12:10:46.606Z,98046.63
2022-09-07T12:15:59.932Z,98047.44
2022-09-07T12:21:01.995Z,98036.88
2022-09-07T12:26:35.585Z,98024.94
2022-09-07T12:31:58.818Z,98024.53
2022-09-07T12:37:12.521Z,98037.38
2022-09-07T12:42:37.836Z,98038.84
2022-09-07T12:47:40.674Z,98023.13
2022-09-07T12:52:53.463Z,98037.03
2022-09-07T12:58:10.215Z,98043.53
2022-09-07T13:08:57.987Z,98044.13
2022-09-07T13:14:08.845Z,98051.91
2022-09-07T13:19:48.939Z,98069.50
2022-09-07T13:24:55.723Z,98097.81
2022-09-07T13:30:01.264Z,98066.22
2022-09-07T13:35:05.557Z,98052.53
2022-09-07T13:40:11.566Z,98045.97
2022-09-07T13:45:33.315Z,98017.75
2022-09-07T13:51:17.437Z,97998.72
2022-09-07T13:56:45.571Z,98006.47
2022-09-07T14:01:49.678Z,97995.53
2022-09-07T14:07:03.838Z,97988.75
2022-09-07T14:12:20.416Z,97997.06
2022-09-07T14:17:22.589Z,98005.56
2022-09-07T14:22:35.316Z,98003.22
2022-09-07T14:27:42.942Z,98003.53
2022-09-07T14:32:49.803Z,98008.84
2022-09-07T14:37:53.254Z,98009.13
2022-09-07T14:42:55.936Z,98008.47
2022-09-07T14:47:58.015Z,98006.28
2022-09-07T14:58:32.293Z,98012.47
2022-09-07T15:03:55.762Z,97978.91
2022-09-07T15:08:57.912Z,97965.13
2022-09-07T15:14:02.207Z,97973.88
2022-09-07T15:19:33.044Z,97968.63
2022-09-07T15:24:35.629Z,97960.25
2022-09-07T15:29:37.477Z,97950.81
2022-09-07T15:34:39.279Z,97957.25
2022-09-07T15:39:41.169Z,97944.31
2022-09-07T15:44:43.042Z,97939.31
2022-09-07T15:49:50.312Z,97927.09
2022-09-07T15:54:53.366Z,97924.44
2022-09-07T15:59:55.185Z,97924.41
2022-09-07T16:04:57.098Z,97917.72
2022-09-07T16:10:02.531Z,97921.66
2022-09-07T16:15:06.019Z,97916.81
2022-09-07T16:20:08.353Z,97931.00
2022-09-07T16:25:10.176Z,97919.75
2022-09-07T16:30:13.408Z,97928.34
2022-09-07T16:35:15.327Z,97919.22
2022-09-07T16:40:17.241Z,97926.28
2022-09-07T16:50:56.578Z,97952.00
2022-09-07T16:56:05.163Z,97939.19
2022-09-07T17:01:09.537Z,97930.63
2022-09-07T17:06:13.433Z,97905.97
2022-09-07T17:11:18.324Z,97901.44
2022-09-07T17:16:29.908Z,97890.56
2022-09-07T17:21:34.314Z,97901.63
2022-09-07T17:26:36.238Z,97910.84
2022-09-07T17:37:01.102Z,97946.63
2022-09-07T17:42:03.226Z,97953.72
2022-09-07T17:47:05.306Z,97942.81
2022-09-07T17:52:07.115Z,97943.56
2022-09-07T17:57:08.934Z,97947.50
2022-09-07T18:02:13.802Z,97949.56
2022-09-07T18:07:15.705Z,97951.09
2022-09-07T18:12:17.708Z,97950.63
2022-09-07T18:17:19.583Z,97949.09
2022-09-07T18:22:21.388Z,97957.88
2022-09-07T18:27:23.126Z,97955.00
2022-09-07T18:32:25.047Z,97951.00
2022-09-07T18:37:26.821Z,97949.88
2022-09-07T18:42:29.963Z,97953.25
2022-09-07T18:47:31.787Z,97969.38
2022-09-07T18:57:56.091Z,97952.56
2022-09-07T19:02:57.811Z,97950.88
2022-09-07T19:08:02.648Z,97936.31
2022-09-07T19:13:04.722Z,97940.22
2022-09-07T19:18:07.852Z,97935.91
2022-09-07T19:23:09.811Z,97932.00
2022-09-07T19:28:11.651Z,97938.19
2022-09-07T19:33:13.661Z,97925.16
2022-09-07T19:38:15.427Z,97926.34
2022-09-07T19:43:17.142Z,97917.31
2022-09-07T19:48:18.917Z,97918.28
2022-09-07T19:53:20.921Z,97914.75
2022-09-07T19:58:22.711Z,97917.31
2022-09-07T20:03:24.773Z,97918.59
2022-09-07T20:08:26.618Z,97927.97
2022-09-07T20:13:28.481Z,97932.13
2022-09-07T20:18:31.024Z,97926.53
2022-09-07T20:23:34.480Z,97933.09
2022-09-07T20:28:37.088Z,97926.44
2022-09-07T20:33:39.511Z,97926.59
2022-09-07T20:38:53.271Z,97918.34
2022-09-07T20:43:56.720Z,97916.44
2022-09-07T20:48:58.871Z,97918.19
2022-09-07T20:54:00.747Z,97901.47
2022-09-07T20:59:03.248Z,97903.00
2022-09-07T21:04:06.357Z,97907.94
2022-09-07T21:09:08.372Z,97907.63
2022-09-07T21:14:13.850Z,97902.34
2022-09-07T21:19:15.824Z,97896.50
2022-09-07T21:24:20.937Z,97893.06
2022-09-07T21:29:24.767Z,97889.63
2022-09-07T21:34:26.603Z,97887.47
2022-09-07T21:39:28.485Z,97889.78
2022-09-07T21:44:30.542Z,97890.47
2022-09-07T21:49:32.467Z,97880.66
2022-09-07T21:54:34.518Z,97884.22
2022-09-07T21:59:36.464Z,97885.97
2022-09-07T22:04:38.320Z,97874.72
2022-09-07T22:09:40.191Z,97870.72
2022-09-07T22:14:44.048Z,97859.03
2022-09-07T22:19:45.947Z,97848.19
2022-09-07T22:24:47.958Z,97846.00
2022-09-07T22:29:49.929Z,97847.84
2022-09-07T22:34:51.852Z,97839.38
2022-09-07T22:39:54.124Z,97836.41
2022-09-07T22:44:56.299Z,97828.16
2022-09-07T22:49:58.492Z,97831.28
2022-09-07T22:55:00.279Z,97835.16
2022-09-07T23:00:02.394Z,97832.78
2022-09-07T23:05:04.294Z,97833.56
2022-09-07T23:10:06.817Z,97825.66
2022-09-07T23:15:08.964Z,97819.38
2022-09-07T23:20:10.805Z,97824.41
2022-09-07T23:25:13.147Z,97828.63
2022-09-07T23:30:15.033Z,97824.97
2022-09-07T23:35:16.875Z,97822.56
2022-09-07T23:40:19.250Z,97813.78
2022-09-07T23:45:21.057Z,97820.31
2022-09-07T23:50:23.054Z,97821.81
2022-09-07T23:55:25.002Z,97822.72
